Time;durP1;ratioP1;P1;durP2;ratioP2;P2;SDS_P1;SDS_P2;PMS_P1;PMS_P2;Temp;Humidity;BMP_temperature;BMP_pressure;BME280_temperature;BME280_humidity;BME280_pressure;Samples;Min_cycle;Max_cycle;Signal;HPM_P1;HPM_P2
2023/10/11 00:00:39;;;;;;;10.80;4.17;;;;;;;15.08;82.04;95538.19;5075324;28;20893;-77
2023/10/11 00:03:14;;;;;;;5.03;4.10;;;;;;;15.03;82.19;95529.81;5075422;28;20809;-77
2023/10/11 00:05:42;;;;;;;4.57;4.17;;;;;;;15.01;82.48;95537.06;5042476;28;20482;-77
2023/10/11 00:08:09;;;;;;;5.43;4.27;;;;;;;14.97;82.64;95535.66;5075683;28;20436;-77
2023/10/11 00:10:43;;;;;;;6.13;4.70;;;;;;;14.94;82.54;95536.78;5075419;28;20463;-76
2023/10/11 00:13:14;;;;;;;8.70;4.63;;;;;;;14.90;82.33;95540.69;5075421;28;20512;-77
2023/10/11 00:15:42;;;;;;;4.90;4.40;;;;;;;14.85;82.18;95535.00;5040370;28;20457;-77
2023/10/11 00:18:10;;;;;;;7.00;4.47;;;;;;;14.86;82.25;95531.38;5075639;28;20434;-77
2023/10/11 00:20:50;;;;;;;8.40;4.40;;;;;;;14.82;82.21;95541.41;5074865;28;20493;-76
2023/10/11 00:23:18;;;;;;;5.30;4.30;;;;;;;14.79;82.48;95541.69;5075344;28;20483;-77
2023/10/11 00:25:45;;;;;;;6.50;4.20;;;;;;;14.76;82.50;95531.41;5075481;28;20447;-77
2023/10/11 00:28:14;;;;;;;6.13;4.23;;;;;;;14.73;82.94;95544.84;5075555;28;20790;-77
2023/10/11 00:30:46;;;;;;;5.40;4.13;;;;;;;14.64;84.35;95531.66;5075288;28;20452;-77
2023/10/11 00:33:13;;;;;;;5.50;4.13;;;;;;;14.60;84.19;95543.47;5075270;28;20445;-76
2023/10/11 00:35:47;;;;;;;4.40;4.00;;;;;;;14.55;84.43;95538.63;5074780;28;20441;-77
2023/10/11 00:38:18;;;;;;;5.97;4.40;;;;;;;14.64;84.12;95532.50;5075282;28;20444;-77
2023/10/11 00:40:46;;;;;;;4.97;4.43;;;;;;;14.71;83.60;95549.44;5056041;28;21072;-77
2023/10/11 00:43:19;;;;;;;7.37;5.10;;;;;;;14.68;83.37;95541.81;5074785;28;20785;-77
2023/10/11 00:45:46;;;;;;;9.53;5.00;;;;;;;14.69;83.18;95540.00;5039987;28;20434;-77
2023/10/11 00:48:19;;;;;;;9.60;5.37;;;;;;;14.52;83.19;95545.00;5076337;28;20510;-77
2023/10/11 00:50:49;;;;;;;6.33;5.73;;;;;;;14.39;83.65;95543.56;5075028;28;20936;-77
2023/10/11 00:53:18;;;;;;;8.40;6.07;;;;;;;14.21;84.65;95552.16;5074491;28;20450;-77
2023/10/11 00:55:45;;;;;;;8.00;5.10;;;;;;;14.19;84.76;95548.81;5074306;28;20446;-77
2023/10/11 00:58:17;;;;;;;8.43;5.90;;;;;;;14.22;84.83;95551.19;5074542;28;20462;-77
2023/10/11 01:00:45;;;;;;;5.83;5.23;;;;;;;14.15;84.23;95550.03;5074562;28;20491;-77
2023/10/11 01:03:13;;;;;;;9.50;5.37;;;;;;;14.13;84.43;95559.91;5074560;28;20457;-77
2023/10/11 01:05:43;;;;;;;6.73;5.97;;;;;;;14.14;84.66;95561.56;5074495;28;20463;-77
2023/10/11 01:08:12;;;;;;;10.73;5.50;;;;;;;14.14;84.71;95551.00;5074306;28;20499;-77
2023/10/11 01:10:45;;;;;;;7.43;5.97;;;;;;;14.15;84.24;95555.31;5074410;28;20470;-77
2023/10/11 01:13:13;;;;;;;7.70;5.73;;;;;;;13.90;84.66;95567.22;5074148;28;20540;-77
2023/10/11 01:15:40;;;;;;;6.87;6.17;;;;;;;13.87;85.07;95569.25;5074216;28;20467;-77
2023/10/11 01:18:10;;;;;;;9.30;6.47;;;;;;;13.88;85.21;95565.69;5073883;28;20495;-77
2023/10/11 01:20:40;;;;;;;10.57;5.83;;;;;;;13.92;85.44;95572.38;5073877;28;20487;-77
2023/10/11 01:23:07;;;;;;;9.17;5.83;;;;;;;13.87;85.04;95577.19;5073623;28;20451;-77
2023/10/11 01:25:34;;;;;;;9.50;6.20;;;;;;;13.71;85.79;95574.22;5073867;28;20452;-77
2023/10/11 01:28:01;;;;;;;16.60;6.67;;;;;;;13.62;85.98;95581.13;5073691;28;20564;-77
2023/10/11 01:30:28;;;;;;;7.00;6.30;;;;;;;13.48;87.37;95577.00;5073840;28;20451;-77
2023/10/11 01:32:55;;;;;;;9.83;6.80;;;;;;;13.51;87.71;95574.13;5038458;28;20443;-77
2023/10/11 01:35:22;;;;;;;7.93;6.33;;;;;;;13.55;88.56;95577.31;5038509;28;20932;-77
2023/10/11 01:37:55;;;;;;;7.43;5.90;;;;;;;13.58;88.37;95584.97;5073463;28;20537;-77
2023/10/11 01:40:24;;;;;;;7.10;6.27;;;;;;;13.71;88.69;95590.03;5073801;28;20807;-77
2023/10/11 01:42:51;;;;;;;11.87;6.37;;;;;;;13.74;88.32;95579.22;5073776;28;20466;-77
2023/10/11 01:45:19;;;;;;;15.00;6.80;;;;;;;13.79;87.81;95580.50;5073393;28;20785;-77
2023/10/11 01:47:47;;;;;;;8.97;5.93;;;;;;;13.85;88.31;95581.75;5073564;28;20441;-76
2023/10/11 01:50:15;;;;;;;7.07;6.17;;;;;;;13.86;88.03;95584.25;5073258;28;20793;-77
2023/10/11 01:52:42;;;;;;;9.53;6.67;;;;;;;13.90;88.47;95580.41;5073479;28;20444;-77
2023/10/11 01:55:13;;;;;;;9.47;6.77;;;;;;;14.04;88.28;95583.63;5073277;28;20444;-77
2023/10/11 01:57:42;;;;;;;7.63;5.87;;;;;;;14.11;87.81;95582.97;5073258;28;20929;-77
2023/10/11 02:00:13;;;;;;;6.73;5.77;;;;;;;14.20;87.30;95582.16;5073096;28;20483;-77
2023/10/11 02:02:45;;;;;;;9.33;6.20;;;;;;;14.31;87.06;95583.00;5073135;28;20445;-77
2023/10/11 02:05:15;;;;;;;8.83;5.07;;;;;;;14.41;86.59;95581.22;5039019;28;20913;-77
2023/10/11 02:07:42;;;;;;;7.27;4.40;;;;;;;14.49;86.03;95574.34;5073041;28;20449;-77
2023/10/11 02:10:13;;;;;;;7.50;5.70;;;;;;;14.51;85.79;95580.31;5072759;28;20934;-77
2023/10/11 02:12:44;;;;;;;14.10;6.10;;;;;;;14.56;85.60;95587.81;5038540;28;20998;-77
2023/10/11 02:15:21;;;;;;;8.50;5.50;;;;;;;14.59;85.85;95587.53;5038358;28;20499;-77
2023/10/11 02:17:51;;;;;;;12.33;5.63;;;;;;;14.55;86.85;95588.78;5073176;28;20475;-76
2023/10/11 02:20:22;;;;;;;6.90;5.80;;;;;;;14.50;87.13;95589.22;5072593;28;20482;-77
2023/10/11 02:22:51;;;;;;;6.43;5.67;;;;;;;14.51;87.28;95590.03;5073025;28;20444;-77
2023/10/11 02:25:24;;;;;;;11.13;6.37;;;;;;;14.37;87.38;95593.03;5073349;28;20444;-76
2023/10/11 02:27:52;;;;;;;6.97;6.27;;;;;;;14.12;87.70;95605.75;5039171;28;20455;-76
2023/10/11 02:30:24;;;;;;;6.87;6.20;;;;;;;13.78;88.65;95597.28;5072943;28;20453;-77
2023/10/11 02:32:51;;;;;;;8.27;6.03;;;;;;;13.63;89.15;95606.53;5072962;28;20804;-77
2023/10/11 02:35:19;;;;;;;10.20;6.13;;;;;;;13.37;90.97;95606.09;5072751;28;20438;-77
2023/10/11 02:37:46;;;;;;;8.73;7.00;;;;;;;13.47;90.59;95608.78;5072790;28;20945;-77
2023/10/11 02:40:16;;;;;;;14.00;6.43;;;;;;;13.53;91.07;95619.63;5072576;28;20578;-76
2023/10/11 02:42:46;;;;;;;11.03;6.43;;;;;;;13.42;90.62;95618.88;5072447;28;20436;-76
2023/10/11 02:45:13;;;;;;;7.70;6.10;;;;;;;13.51;90.66;95621.56;5072615;28;20482;-76
2023/10/11 02:47:41;;;;;;;12.03;6.93;;;;;;;13.51;90.79;95616.31;5072861;28;20465;-77
2023/10/11 02:50:09;;;;;;;12.10;5.87;;;;;;;13.61;90.62;95621.66;5072585;28;20802;-76
2023/10/11 02:52:39;;;;;;;6.67;6.00;;;;;;;13.64;90.26;95619.59;5072390;28;20440;-77
2023/10/11 02:55:21;;;;;;;8.03;6.50;;;;;;;13.72;90.05;95615.44;5072852;28;20545;-76
2023/10/11 02:58:05;;;;;;;7.33;6.03;;;;;;;13.82;89.65;95629.50;5072629;28;20484;-77
2023/10/11 03:00:33;;;;;;;8.60;6.97;;;;;;;13.87;88.79;95627.31;5072208;28;20577;-77
2023/10/11 03:03:00;;;;;;;6.47;5.87;;;;;;;13.91;88.34;95624.28;5072493;28;20451;-78
2023/10/11 03:05:28;;;;;;;7.37;5.63;;;;;;;13.99;88.00;95620.16;5072246;28;20502;-77
2023/10/11 03:08:13;;;;;;;10.40;6.73;;;;;;;14.01;87.66;95624.31;5072562;28;20443;-77
2023/10/11 03:10:43;;;;;;;6.57;5.90;;;;;;;14.04;87.14;95621.41;5072262;28;21221;-76
2023/10/11 03:13:19;;;;;;;9.10;6.50;;;;;;;14.04;86.73;95634.63;5072488;28;20463;-76
2023/10/11 03:15:46;;;;;;;9.10;6.10;;;;;;;14.06;86.60;95631.84;5075470;28;20448;-75
2023/10/11 03:18:13;;;;;;;10.53;6.70;;;;;;;14.00;86.62;95633.22;5041137;28;20460;-76
2023/10/11 03:20:40;;;;;;;8.13;6.90;;;;;;;13.91;87.05;95636.66;5076058;28;20515;-76
2023/10/11 03:23:11;;;;;;;9.13;7.30;;;;;;;13.80;87.61;95637.56;5076339;28;20479;-76
2023/10/11 03:25:44;;;;;;;13.20;7.73;;;;;;;13.73;88.20;95640.84;5076131;28;20452;-77
2023/10/11 03:28:15;;;;;;;9.83;7.07;;;;;;;13.62;89.20;95645.25;5076169;28;20448;-76
2023/10/11 03:30:42;;;;;;;10.47;7.13;;;;;;;13.53;90.24;95643.38;5076185;28;20451;-77
2023/10/11 03:33:10;;;;;;;13.53;6.47;;;;;;;13.46;90.19;95642.22;5076245;28;20499;-76
2023/10/11 03:35:38;;;;;;;10.30;5.93;;;;;;;13.50;90.41;95648.91;5076111;28;20491;-77
2023/10/11 03:38:16;;;;;;;8.63;6.23;;;;;;;13.59;90.35;95640.25;5076020;28;20766;-78
2023/10/11 03:40:55;;;;;;;11.37;6.80;;;;;;;13.61;89.65;95640.94;5075694;28;20494;-76
2023/10/11 03:43:26;;;;;;;6.50;5.90;;;;;;;13.60;89.83;95651.63;5044119;28;20442;-77
2023/10/11 03:45:58;;;;;;;7.23;6.30;;;;;;;13.70;89.87;95656.94;5075206;28;20509;-76
2023/10/11 03:48:28;;;;;;;13.30;7.40;;;;;;;13.77;89.00;95652.81;5076343;28;20433;-78
2023/10/11 03:50:55;;;;;;;15.10;6.27;;;;;;;13.87;89.19;95653.69;5075676;28;20455;-76
2023/10/11 03:53:22;;;;;;;10.87;6.73;;;;;;;13.96;88.72;95658.19;5075957;28;20447;-76
2023/10/11 03:55:50;;;;;;;7.47;6.20;;;;;;;13.95;87.87;95659.16;5040235;28;20445;-76
2023/10/11 03:58:36;;;;;;;13.73;5.63;;;;;;;13.93;88.13;95669.00;5075815;28;20450;-79
2023/10/11 04:01:11;;;;;;;11.80;5.47;;;;;;;14.04;88.13;95666.28;5075270;28;20498;-76
2023/10/11 04:03:39;;;;;;;7.80;6.57;;;;;;;14.11;87.86;95658.66;5075416;28;20516;-76
2023/10/11 04:06:13;;;;;;;11.63;7.20;;;;;;;14.15;86.87;95660.91;5075163;28;20445;-76
2023/10/11 04:08:42;;;;;;;12.07;8.07;;;;;;;14.21;86.42;95665.66;5075491;28;20450;-77
2023/10/11 04:11:18;;;;;;;6.37;5.77;;;;;;;14.16;85.69;95670.50;5075359;28;20529;-77
2023/10/11 04:13:49;;;;;;;9.80;6.73;;;;;;;14.21;85.92;95670.13;5075717;28;20451;-76
2023/10/11 04:16:17;;;;;;;12.63;7.83;;;;;;;14.23;85.97;95676.94;5075246;28;20526;-76
2023/10/11 04:18:45;;;;;;;12.80;6.57;;;;;;;14.26;86.24;95675.81;5075402;28;20974;-77
2023/10/11 04:21:38;;;;;;;7.13;6.43;;;;;;;14.21;85.52;95678.03;5074995;28;20475;-77
2023/10/11 04:24:07;;;;;;;9.37;7.50;;;;;;;14.16;85.68;95688.97;5075282;28;20504;-77
2023/10/11 04:26:36;;;;;;;11.07;7.60;;;;;;;14.08;86.24;95687.97;5039233;28;20589;-77
2023/10/11 04:32:13;;;;;;;5.47;5.00;;;;;;;13.92;85.53;95681.38;5032963;28;20797;-77
2023/10/11 04:34:48;;;;;;;8.83;5.80;;;;;;;13.86;85.59;95694.22;5032829;28;20491;-76
2023/10/11 04:37:27;;;;;;;4.83;4.43;;;;;;;13.92;86.34;95691.09;5032591;28;20448;-77
2023/10/11 04:39:56;;;;;;;5.43;4.93;;;;;;;13.93;85.58;95696.25;5032572;28;20442;-76
2023/10/11 04:42:27;;;;;;;6.57;5.50;;;;;;;13.88;85.64;95703.72;5032492;28;20836;-77
2023/10/11 04:44:56;;;;;;;8.37;4.87;;;;;;;13.95;85.06;95701.38;5032566;28;20481;-77
2023/10/11 04:47:25;;;;;;;10.13;5.70;;;;;;;14.00;85.55;95693.91;5032507;28;20481;-76
2023/10/11 04:49:53;;;;;;;8.80;5.67;;;;;;;14.13;85.38;95706.88;5020091;28;20951;-77
2023/10/11 04:52:25;;;;;;;9.50;4.80;;;;;;;14.23;84.40;95710.41;5012805;28;20491;-77
2023/10/11 04:54:55;;;;;;;6.53;5.83;;;;;;;14.31;84.18;95709.75;5012548;28;20854;-77
2023/10/11 04:57:32;;;;;;;8.13;6.73;;;;;;;14.35;84.38;95709.34;5012526;28;20451;-77
2023/10/11 05:00:00;;;;;;;13.60;6.37;;;;;;;14.44;83.56;95716.50;5012648;28;20442;-76
2023/10/11 05:02:32;;;;;;;11.87;6.13;;;;;;;14.45;83.39;95712.88;5012529;28;20479;-77
2023/10/11 05:05:00;;;;;;;10.37;7.23;;;;;;;14.54;83.42;95716.53;5012423;28;20561;-77
2023/10/11 05:07:28;;;;;;;16.60;7.53;;;;;;;14.57;82.59;95716.28;4963672;28;20525;-77
2023/10/11 05:10:05;;;;;;;11.10;7.07;;;;;;;14.60;82.52;95721.28;5051713;28;20457;-77
2023/10/11 05:12:38;;;;;;;9.87;7.37;;;;;;;14.57;82.71;95730.31;5054431;28;20448;-76
2023/10/11 05:15:07;;;;;;;9.30;7.00;;;;;;;14.62;82.98;95731.72;5072469;28;20536;-78
2023/10/11 05:17:41;;;;;;;12.90;6.80;;;;;;;14.81;82.66;95737.06;5039179;28;20549;-77
2023/10/11 05:20:44;;;;;;;10.00;7.20;;;;;;;15.06;81.42;95746.31;5071476;28;20651;-77
2023/10/11 05:23:13;;;;;;;10.30;7.30;;;;;;;15.14;80.43;95741.16;5073317;28;20517;-77
2023/10/11 05:25:56;;;;;;;5.77;4.87;;;;;;;15.16;79.15;95737.41;5073782;28;20509;-77
2023/10/11 05:28:44;;;;;;;6.27;5.27;;;;;;;14.94;78.66;95747.38;5074180;28;20455;-77
2023/10/11 05:31:22;;;;;;;14.47;5.87;;;;;;;15.06;78.68;95748.94;5074145;28;20459;-78
2023/10/11 05:34:29;;;;;;;13.27;5.57;;;;;;;15.29;82.53;95739.78;5074279;28;20461;-81
2023/10/11 05:50:50;;;;;;;13.87;6.43;;;;;;;15.48;81.01;95750.38;5074173;28;20433;-78
2023/10/11 05:50:54;;;;;;;12.83;5.30;;;;;;;15.72;77.51;95749.16;5043533;28;20441;-78
2023/10/11 05:53:24;;;;;;;16.30;6.30;;;;;;;16.47;78.57;95740.31;5073807;28;20443;-78
2023/10/11 05:55:52;;;;;;;18.03;5.40;;;;;;;17.30;74.79;95747.31;5073819;28;20502;-79
2023/10/11 05:58:19;;;;;;;9.60;4.47;;;;;;;17.82;67.63;95747.50;5075904;28;20468;-79
2023/10/11 06:00:49;;;;;;;6.67;4.40;;;;;;;18.17;67.73;95751.09;5077475;28;20521;-79
2023/10/11 06:03:16;;;;;;;7.10;4.80;;;;;;;17.89;63.48;95747.72;5074436;28;20453;-78
2023/10/11 06:05:45;;;;;;;10.27;5.63;;;;;;;17.47;64.56;95758.09;5073102;28;20467;-78
2023/10/11 06:08:15;;;;;;;10.40;4.00;;;;;;;17.21;66.54;95758.00;5073229;28;20443;-79
2023/10/11 06:10:42;;;;;;;5.27;4.47;;;;;;;16.90;66.88;95760.97;5073061;28;20448;-79
2023/10/11 06:13:13;;;;;;;6.00;4.53;;;;;;;16.82;69.01;95762.69;5073382;28;20480;-79
2023/10/11 06:15:45;;;;;;;7.53;4.53;;;;;;;16.73;69.62;95765.22;5037034;28;20451;-78
2023/10/11 06:18:36;;;;;;;6.80;3.83;;;;;;;16.63;69.61;95764.41;5072968;28;20486;-78
2023/10/11 06:21:05;;;;;;;8.90;4.70;;;;;;;17.19;68.93;95771.41;5072704;28;20484;-79
2023/10/11 06:23:37;;;;;;;7.47;4.60;;;;;;;17.48;68.49;95778.34;5073194;28;20458;-79
2023/10/11 06:26:28;;;;;;;9.20;4.80;;;;;;;17.42;67.00;95782.44;5038582;28;20454;-78
2023/10/11 06:29:02;;;;;;;6.70;4.50;;;;;;;17.31;67.95;95791.44;5057731;28;20461;-75
2023/10/11 06:31:33;;;;;;;8.63;5.07;;;;;;;17.20;67.75;95794.31;5072779;28;20920;-78
2023/10/11 06:34:03;;;;;;;21.00;5.33;;;;;;;17.02;68.24;95796.91;5072905;28;20452;-78
2023/10/11 06:36:35;;;;;;;5.83;4.60;;;;;;;16.83;68.52;95797.00;5073028;28;20445;-78
2023/10/11 06:39:29;;;;;;;15.17;5.60;;;;;;;16.91;68.62;95798.91;5072858;28;20440;-76
2023/10/11 06:41:51;;;;;;;8.07;5.30;;;;;;;16.93;68.28;95812.88;5071777;28;20477;-78
2023/10/11 06:44:18;;;;;;;12.47;5.50;;;;;;;16.69;68.54;95816.84;5072171;28;20460;-78
2023/10/11 06:46:47;;;;;;;4.40;4.03;;;;;;;16.30;69.31;95817.91;5037069;28;20193;-79
2023/10/11 06:49:14;;;;;;;5.67;4.97;;;;;;;16.28;69.03;95811.94;5071004;28;20443;-79
2023/10/11 06:51:42;;;;;;;8.30;4.47;;;;;;;16.31;68.12;95815.13;5040982;28;20441;-78
2023/10/11 06:54:11;;;;;;;10.60;5.00;;;;;;;16.39;69.41;95809.94;5072039;28;20811;-77
2023/10/11 06:56:40;;;;;;;8.90;4.40;;;;;;;16.25;68.79;95817.50;5072630;28;20453;-78
2023/10/11 06:59:07;;;;;;;7.00;4.83;;;;;;;16.46;69.93;95812.00;5072737;28;20444;-79
2023/10/11 07:01:35;;;;;;;7.33;4.87;;;;;;;16.35;68.57;95813.84;5072636;28;20517;-80
2023/10/11 07:04:03;;;;;;;6.20;4.60;;;;;;;16.34;67.99;95809.53;5037913;28;20524;-78
2023/10/11 07:06:35;;;;;;;15.93;5.50;;;;;;;16.68;70.01;95804.59;5072635;28;20432;-79
2023/10/11 07:09:05;;;;;;;6.07;5.20;;;;;;;17.08;67.73;95795.50;5072336;28;20993;-79
2023/10/11 07:11:44;;;;;;;7.50;5.20;;;;;;;17.31;66.15;95807.34;5072601;28;20909;-79
2023/10/11 07:14:15;;;;;;;9.30;5.50;;;;;;;17.50;65.11;95809.06;5040933;28;20915;-79
2023/10/11 07:16:44;;;;;;;5.57;4.50;;;;;;;17.78;64.80;95798.41;5072343;28;20568;-79
2023/10/11 07:19:11;;;;;;;9.53;5.27;;;;;;;18.02;64.60;95795.16;5072479;28;20446;-78
2023/10/11 07:21:52;;;;;;;11.27;5.40;;;;;;;18.32;63.61;95789.41;5052730;28;20476;-79
2023/10/11 07:24:33;;;;;;;9.00;6.10;;;;;;;18.79;64.22;95787.25;5071809;28;20519;-78
2023/10/11 07:27:07;;;;;;;7.10;5.27;;;;;;;19.04;59.51;95777.53;5072097;28;20452;-81
2023/10/11 07:29:35;;;;;;;13.03;4.70;;;;;;;19.22;60.32;95789.91;5071671;28;20502;-80
2023/10/11 07:32:03;;;;;;;8.47;5.13;;;;;;;19.30;59.13;95782.78;5071784;28;20958;-80
2023/10/11 07:34:31;;;;;;;9.63;5.43;;;;;;;19.59;59.06;95781.53;5071780;28;20525;-81
2023/10/11 07:36:59;;;;;;;6.33;4.70;;;;;;;19.94;57.56;95778.59;5071972;28;20443;-81
2023/10/11 07:39:27;;;;;;;9.23;5.23;;;;;;;20.15;56.97;95762.09;5071773;28;20437;-80
2023/10/11 07:42:05;;;;;;;9.77;5.80;;;;;;;20.11;56.12;95768.78;5071968;28;20486;-81
2023/10/11 07:44:31;;;;;;;7.47;4.80;;;;;;;20.28;56.56;95766.94;5071951;28;20533;-78
2023/10/11 07:46:58;;;;;;;6.90;5.80;;;;;;;20.06;55.86;95761.28;5071760;28;20456;-81
2023/10/11 07:49:25;;;;;;;8.53;4.73;;;;;;;20.14;55.24;95764.94;5071627;28;20512;-81
2023/10/11 07:51:58;;;;;;;9.07;5.20;;;;;;;19.73;55.89;95768.44;5036489;28;20851;-81
2023/10/11 07:54:27;;;;;;;7.00;5.23;;;;;;;19.76;57.79;95776.09;4988951;28;20433;-80
2023/10/11 07:56:57;;;;;;;9.23;5.60;;;;;;;19.77;57.63;95783.09;5052467;28;20499;-81
2023/10/11 07:59:26;;;;;;;10.10;5.37;;;;;;;19.93;56.53;95779.59;5071842;28;20791;-81
2023/10/11 08:01:54;;;;;;;7.43;5.27;;;;;;;20.15;56.59;95778.09;5074398;28;20988;-81
2023/10/11 08:04:27;;;;;;;7.33;5.33;;;;;;;20.40;55.62;95790.44;5074892;28;20862;-80
2023/10/11 08:06:59;;;;;;;8.33;5.23;;;;;;;20.40;54.52;95795.78;5074657;28;20495;-80
2023/10/11 08:09:34;;;;;;;5.80;4.90;;;;;;;20.39;55.05;95779.91;5041097;28;20522;-81
2023/10/11 08:12:07;;;;;;;11.17;5.80;;;;;;;20.42;55.71;95795.59;5074861;28;20452;-81
2023/10/11 08:14:34;;;;;;;12.63;5.70;;;;;;;20.26;54.82;95785.78;5075370;28;20446;-80
2023/10/11 08:17:10;;;;;;;6.53;5.27;;;;;;;20.22;55.99;95804.91;5074825;28;20477;-77
2023/10/11 08:19:37;;;;;;;9.70;5.60;;;;;;;20.02;55.82;95794.59;5075240;28;20499;-80
2023/10/11 08:22:09;;;;;;;9.93;5.30;;;;;;;20.03;54.76;95811.41;5039797;28;20492;-80
2023/10/11 08:24:46;;;;;;;10.10;6.00;;;;;;;19.79;55.24;95805.06;5074791;28;20895;-80
2023/10/11 08:27:14;;;;;;;7.33;5.60;;;;;;;19.53;56.60;95807.00;5041771;28;20445;-80
2023/10/11 08:29:42;;;;;;;6.53;5.57;;;;;;;19.64;56.87;95796.03;5075003;28;20505;-80
2023/10/11 08:32:12;;;;;;;7.57;5.70;;;;;;;19.94;55.86;95807.06;5074481;28;20458;-81
2023/10/11 08:34:43;;;;;;;6.70;4.87;;;;;;;20.05;55.20;95812.09;5074748;28;20507;-80
2023/10/11 08:37:10;;;;;;;7.70;4.80;;;;;;;20.17;55.47;95801.91;5074752;28;20441;-80
2023/10/11 08:39:44;;;;;;;6.63;4.70;;;;;;;20.19;54.36;95806.06;5074596;28;20449;-80
2023/10/11 08:42:14;;;;;;;6.10;4.73;;;;;;;20.16;55.77;95801.06;5074100;28;20980;-80
2023/10/11 08:44:44;;;;;;;6.73;5.13;;;;;;;20.08;54.99;95798.41;5074126;28;20493;-81
2023/10/11 08:47:13;;;;;;;5.43;4.93;;;;;;;20.14;56.22;95799.59;5039514;28;20441;-80
2023/10/11 08:49:42;;;;;;;7.90;5.50;;;;;;;20.30;55.02;95802.25;5074449;28;20449;-80
2023/10/11 08:52:11;;;;;;;7.00;5.83;;;;;;;20.27;53.74;95795.44;5074368;28;20696;-80
2023/10/11 08:54:41;;;;;;;9.40;5.67;;;;;;;20.14;54.39;95792.41;5074116;28;20442;-80
2023/10/11 08:57:13;;;;;;;6.17;4.20;;;;;;;20.18;54.20;95788.41;5074012;28;20503;-80
2023/10/11 08:59:48;;;;;;;12.33;5.67;;;;;;;20.18;54.34;95785.75;5074298;28;20441;-80
2023/10/11 09:02:17;;;;;;;6.23;5.73;;;;;;;20.16;54.84;95789.59;5074107;28;20579;-80
2023/10/11 09:04:57;;;;;;;7.30;5.00;;;;;;;20.20;55.08;95780.25;5073989;28;20481;-81
2023/10/11 09:07:38;;;;;;;6.73;5.20;;;;;;;20.26;54.65;95784.94;5074076;28;20433;-81
2023/10/11 09:10:25;;;;;;;9.40;5.23;;;;;;;20.36;56.79;95781.09;5073897;28;20628;-80
2023/10/11 09:12:56;;;;;;;6.13;5.60;;;;;;;20.50;55.03;95792.91;5073094;28;20450;-80
2023/10/11 09:15:23;;;;;;;8.83;6.73;;;;;;;20.66;54.56;95784.06;5073601;28;20508;-80
2023/10/11 09:17:50;;;;;;;7.47;5.43;;;;;;;20.87;54.86;95787.03;5073640;28;20500;-79
2023/10/11 09:20:23;;;;;;;9.27;5.80;;;;;;;21.07;52.98;95783.94;5073679;28;20438;-80
2023/10/11 09:22:55;;;;;;;10.53;5.43;;;;;;;20.71;53.29;95789.72;5073767;28;20502;-80
2023/10/11 09:25:33;;;;;;;7.13;5.40;;;;;;;20.58;53.50;95789.44;5073515;28;20446;-80
2023/10/11 09:28:03;;;;;;;8.70;5.00;;;;;;;20.73;54.39;95779.72;5073882;28;20454;-81
2023/10/11 09:30:31;;;;;;;9.23;5.83;;;;;;;20.84;53.75;95782.03;5073286;28;20442;-80
2023/10/11 09:33:05;;;;;;;9.20;5.30;;;;;;;20.93;53.51;95782.84;5073784;28;20433;-81
2023/10/11 09:35:32;;;;;;;6.60;5.77;;;;;;;20.99;53.26;95780.31;5072961;28;20799;-80
2023/10/11 09:38:00;;;;;;;8.80;5.80;;;;;;;21.12;52.90;95777.09;5073652;28;20974;-81
2023/10/11 09:40:31;;;;;;;6.60;4.70;;;;;;;21.27;51.83;95775.38;5054254;28;20436;-80
2023/10/11 09:43:01;;;;;;;6.07;5.13;;;;;;;21.42;52.33;95774.66;5073014;28;20840;-80
2023/10/11 09:45:41;;;;;;;6.50;5.90;;;;;;;21.36;50.75;95770.81;5037932;28;20508;-81
2023/10/11 09:48:12;;;;;;;8.50;5.33;;;;;;;21.32;51.82;95766.84;5072984;28;20440;-80
2023/10/11 09:50:41;;;;;;;6.40;5.57;;;;;;;20.93;52.32;95764.16;5072826;28;20457;-80
2023/10/11 09:53:10;;;;;;;8.07;5.87;;;;;;;20.89;52.04;95766.34;5073021;28;20446;-80
2023/10/11 09:55:47;;;;;;;6.27;5.03;;;;;;;20.66;53.39;95762.72;5053819;28;20448;-80
2023/10/11 09:58:24;;;;;;;7.23;5.20;;;;;;;20.41;52.89;95762.78;5073031;28;20444;-80
2023/10/11 10:01:05;;;;;;;9.90;5.87;;;;;;;20.49;54.60;95758.44;5037405;28;20448;-80
2023/10/11 10:03:38;;;;;;;6.13;5.50;;;;;;;20.68;53.06;95752.72;5072586;28;21040;-81
2023/10/11 10:06:10;;;;;;;7.57;5.57;;;;;;;20.84;53.28;95757.19;5072511;28;20449;-80
2023/10/11 10:08:37;;;;;;;12.13;5.40;;;;;;;20.76;52.83;95755.34;5072803;28;20495;-80
2023/10/11 10:11:05;;;;;;;6.83;5.23;;;;;;;20.68;53.23;95742.06;5072782;28;20443;-81
2023/10/11 10:14:10;;;;;;;6.37;5.53;;;;;;;20.54;52.37;95735.59;5072848;28;20447;-79
2023/10/11 10:17:15;;;;;;;7.23;5.17;;;;;;;20.76;53.25;95728.69;5010039;28;20493;-80
2023/10/11 10:19:44;;;;;;;7.07;5.23;;;;;;;20.92;53.74;95733.13;4977524;28;20592;-79
2023/10/11 10:22:11;;;;;;;6.63;4.40;;;;;;;21.01;52.55;95724.91;5010415;28;20646;-80
2023/10/11 10:24:41;;;;;;;5.27;4.77;;;;;;;21.05;51.86;95722.72;5009267;28;20449;-78
2023/10/11 10:27:40;;;;;;;5.60;4.20;;;;;;;20.87;50.46;95723.00;5010595;28;20442;-81
2023/10/11 10:30:10;;;;;;;5.60;5.00;;;;;;;20.60;51.45;95721.59;5010479;28;21093;-80
2023/10/11 10:32:38;;;;;;;7.90;5.30;;;;;;;20.49;52.11;95719.25;4978437;28;20454;-79
2023/10/11 10:35:36;;;;;;;4.73;4.23;;;;;;;20.48;52.36;95709.59;5010251;28;20481;-80
2023/10/11 10:38:09;;;;;;;4.93;4.30;;;;;;;20.60;52.12;95710.09;5010211;28;20442;-80
2023/10/11 10:40:37;;;;;;;4.87;3.70;;;;;;;20.75;51.69;95704.84;5010310;28;20437;-80
2023/10/11 10:43:21;;;;;;;7.40;3.97;;;;;;;20.48;51.25;95708.75;5010388;28;21037;-80
2023/10/11 10:45:48;;;;;;;5.43;4.10;;;;;;;20.50;51.87;95690.75;5010347;28;20506;-80
2023/10/11 10:48:18;;;;;;;5.73;4.50;;;;;;;20.52;51.62;95697.59;5010207;28;20449;-80
2023/10/11 10:50:48;;;;;;;4.33;3.93;;;;;;;20.66;51.68;95696.88;5010523;28;20485;-81
2023/10/11 10:53:16;;;;;;;5.77;4.07;;;;;;;20.32;52.42;95686.47;5033788;28;20444;-79
2023/10/11 10:55:42;;;;;;;6.07;4.03;;;;;;;20.55;52.38;95689.28;5072729;28;20500;-81
2023/10/11 10:58:15;;;;;;;3.90;3.47;;;;;;;20.58;52.21;95688.09;5072307;28;20953;-80
2023/10/11 11:00:43;;;;;;;4.53;3.90;;;;;;;20.59;51.93;95689.75;5072505;28;20454;-81
2023/10/11 11:03:23;;;;;;;4.30;3.80;;;;;;;20.72;51.63;95684.69;5077753;28;20559;-81
2023/10/11 11:05:56;;;;;;;5.43;4.43;;;;;;;20.86;51.58;95685.81;5042474;28;20446;-81
2023/10/11 11:08:27;;;;;;;5.87;3.70;;;;;;;20.82;50.32;95674.66;5054147;28;20443;-81
2023/10/11 11:11:19;;;;;;;4.53;3.63;;;;;;;20.91;51.08;95678.13;5072211;28;20527;-80
2023/10/11 11:13:48;;;;;;;7.93;3.80;;;;;;;20.86;51.30;95673.31;5072073;28;20446;-81
2023/10/11 11:16:20;;;;;;;6.13;4.50;;;;;;;21.12;51.56;95674.84;5071724;28;20517;-80
2023/10/11 11:18:48;;;;;;;4.80;3.83;;;;;;;21.32;49.77;95676.88;5072057;28;20539;-80
2023/10/11 11:21:20;;;;;;;4.20;3.80;;;;;;;21.29;48.69;95676.41;5036937;28;20522;-85
2023/10/11 11:23:49;;;;;;;4.03;3.43;;;;;;;21.06;49.30;95664.84;5072167;28;20847;-81
2023/10/11 11:26:15;;;;;;;4.40;4.00;;;;;;;21.26;49.50;95663.44;5071998;28;20458;-81
2023/10/11 11:28:46;;;;;;;6.30;3.50;;;;;;;21.30;49.01;95672.75;5036450;28;20490;-81
2023/10/11 11:31:13;;;;;;;8.80;4.30;;;;;;;21.46;49.08;95666.47;5071723;28;20448;-80
2023/10/11 11:36:56;;;;;;;19.93;5.20;;;;;;;21.49;49.66;95658.09;5110174;27;21084;-78
2023/10/11 11:39:26;;;;;;;9.77;4.07;;;;;;;21.34;49.72;95664.19;5110016;28;20455;-79
2023/10/11 11:41:57;;;;;;;12.50;3.97;;;;;;;21.22;49.65;95659.41;5110117;28;20441;-80
2023/10/11 11:44:23;;;;;;;8.70;4.10;;;;;;;21.10;49.67;95660.81;5110003;28;20453;-78
2023/10/11 11:46:51;;;;;;;5.07;3.73;;;;;;;21.24;49.67;95663.59;5110364;28;20446;-80
2023/10/11 11:49:21;;;;;;;8.17;3.83;;;;;;;21.33;48.49;95657.19;5110091;28;20439;-78
2023/10/11 11:51:55;;;;;;;4.03;3.73;;;;;;;21.40;49.43;95652.00;5110355;28;20449;-82
2023/10/11 11:54:22;;;;;;;7.43;4.70;;;;;;;21.04;49.11;95651.69;5109969;28;20951;-79
2023/10/11 11:56:54;;;;;;;4.20;3.80;;;;;;;21.10;50.31;95644.81;5109879;28;20471;-81
2023/10/11 11:59:20;;;;;;;6.40;3.73;;;;;;;21.23;49.67;95645.06;5109827;28;20557;-79
2023/10/11 12:01:49;;;;;;;4.97;4.40;;;;;;;21.28;49.59;95645.38;5109847;28;20502;-78
2023/10/11 12:04:20;;;;;;;4.20;3.80;;;;;;;21.23;49.01;95637.06;5109788;28;20481;-78
2023/10/11 12:06:48;;;;;;;5.70;3.90;;;;;;;21.25;49.38;95637.75;5109539;28;20852;-78
2023/10/11 12:09:21;;;;;;;14.23;3.90;;;;;;;21.29;49.54;95634.53;5109451;28;20936;-79